Time;durP1;ratioP1;P1;durP2;ratioP2;P2;SDS_P1;SDS_P2;PMS_P1;PMS_P2;Temp;Humidity;BMP_temperature;BMP_pressure;BME280_temperature;BME280_humidity;BME280_pressure;Samples;Min_cycle;Max_cycle;Signal;HPM_P1;HPM_P2
2024/01/27 00:00:32;;;;;;;4.27;2.13;;;5.40;54.70;;;;;;5054356;28;20296;-63
2024/01/27 00:02:59;;;;;;;3.60;2.23;;;5.40;54.40;;;;;;5050516;28;20223;-63
2024/01/27 00:05:25;;;;;;;4.67;2.77;;;5.30;55.00;;;;;;5063669;28;20268;-63
2024/01/27 00:07:52;;;;;;;3.43;2.47;;;5.30;55.00;;;;;;5065967;28;20808;-64
2024/01/27 00:10:18;;;;;;;3.20;2.43;;;5.20;55.10;;;;;;5066953;28;20258;-63
2024/01/27 00:12:44;;;;;;;5.77;2.17;;;5.30;55.00;;;;;;5058255;28;20714;-63
2024/01/27 00:15:11;;;;;;;2.87;1.90;;;5.20;54.90;;;;;;5066564;28;20255;-62
2024/01/27 00:17:37;;;;;;;2.90;2.43;;;5.30;55.00;;;;;;5057499;28;20271;-63
2024/01/27 00:20:04;;;;;;;5.50;2.30;;;5.30;55.00;;;;;;5066406;28;20678;-63
2024/01/27 00:22:31;;;;;;;4.37;2.50;;;5.30;55.00;;;;;;5064843;28;20780;-63
2024/01/27 00:24:57;;;;;;;3.37;2.30;;;5.30;55.00;;;;;;5062789;28;20216;-63
2024/01/27 00:27:23;;;;;;;2.53;2.10;;;5.30;55.00;;;;;;5060444;28;20658;-63
2024/01/27 00:29:50;;;;;;;5.03;2.67;;;5.30;55.00;;;;;;5063870;28;20245;-63
2024/01/27 00:32:17;;;;;;;4.67;2.47;;;5.20;55.50;;;;;;5066181;28;20232;-63
2024/01/27 00:34:43;;;;;;;3.07;2.60;;;5.20;55.20;;;;;;5055873;28;20220;-63
2024/01/27 00:37:10;;;;;;;4.53;2.50;;;5.20;55.70;;;;;;5061601;28;20265;-63
2024/01/27 00:39:36;;;;;;;3.13;2.33;;;5.10;56.00;;;;;;5065482;28;20267;-62
2024/01/27 00:42:03;;;;;;;3.63;2.60;;;5.10;56.30;;;;;;5061911;28;20228;-63
2024/01/27 00:44:29;;;;;;;5.83;2.37;;;5.10;56.20;;;;;;5062039;28;20254;-63
2024/01/27 00:46:56;;;;;;;4.83;2.33;;;5.20;55.70;;;;;;5065648;28;20670;-63
2024/01/27 00:49:22;;;;;;;4.10;2.33;;;5.20;55.60;;;;;;5065124;28;20253;-63
2024/01/27 00:51:49;;;;;;;4.07;2.70;;;5.30;55.70;;;;;;5056950;28;20278;-63
2024/01/27 00:54:15;;;;;;;4.27;3.17;;;5.30;55.50;;;;;;5054981;28;20669;-63
2024/01/27 00:56:42;;;;;;;3.00;2.50;;;5.30;55.60;;;;;;5066978;28;20262;-63
2024/01/27 00:59:08;;;;;;;3.50;2.57;;;5.20;55.90;;;;;;5066548;28;20229;-63
2024/01/27 01:01:35;;;;;;;4.20;3.10;;;5.20;56.20;;;;;;5054619;28;20260;-63
2024/01/27 01:04:01;;;;;;;3.13;2.87;;;5.20;56.30;;;;;;5066169;28;20210;-63
2024/01/27 01:06:28;;;;;;;5.40;2.90;;;5.20;56.20;;;;;;5061665;28;20216;-62
2024/01/27 01:08:54;;;;;;;5.27;2.73;;;5.20;56.00;;;;;;5064469;28;20235;-63
2024/01/27 01:11:21;;;;;;;3.20;2.60;;;5.20;56.20;;;;;;5064926;28;20267;-63
2024/01/27 01:13:47;;;;;;;2.70;2.50;;;5.10;56.30;;;;;;5061755;28;20272;-63
2024/01/27 01:16:14;;;;;;;5.57;2.60;;;5.10;56.30;;;;;;5061487;28;20639;-63
2024/01/27 01:18:40;;;;;;;6.83;3.00;;;5.10;56.30;;;;;;5057233;28;20221;-63
2024/01/27 01:21:07;;;;;;;4.50;2.60;;;5.00;56.10;;;;;;5051734;28;20245;-63
2024/01/27 01:23:33;;;;;;;4.07;2.30;;;5.00;56.30;;;;;;5061318;28;20669;-63
2024/01/27 01:26:00;;;;;;;2.27;2.07;;;4.90;56.00;;;;;;5052838;28;20270;-63
2024/01/27 01:28:27;;;;;;;3.93;2.40;;;4.90;56.90;;;;;;5061257;28;20202;-63
2024/01/27 01:30:54;;;;;;;4.33;2.50;;;4.80;56.10;;;;;;5066447;28;20219;-63
2024/01/27 01:33:20;;;;;;;3.20;2.60;;;4.70;56.80;;;;;;5061173;28;20208;-62
2024/01/27 01:35:47;;;;;;;5.93;2.63;;;4.90;56.50;;;;;;5058390;28;20291;-64
2024/01/27 01:38:14;;;;;;;3.07;2.60;;;4.90;56.40;;;;;;5052610;28;20684;-62
2024/01/27 01:40:40;;;;;;;2.63;2.43;;;4.70;56.50;;;;;;5056981;28;20302;-64
2024/01/27 01:43:07;;;;;;;5.63;2.60;;;4.60;56.80;;;;;;5053145;28;20209;-63
2024/01/27 01:45:33;;;;;;;4.30;2.70;;;4.70;56.70;;;;;;5052413;28;20262;-63
2024/01/27 01:48:00;;;;;;;3.90;2.60;;;4.70;56.50;;;;;;5048348;28;20286;-64
2024/01/27 01:50:26;;;;;;;3.20;2.80;;;4.80;56.60;;;;;;5064242;28;20231;-64
2024/01/27 01:52:53;;;;;;;3.87;3.10;;;4.70;56.60;;;;;;5061281;28;20806;-61
2024/01/27 01:55:20;;;;;;;5.27;3.73;;;4.70;56.80;;;;;;5048879;28;20302;-64
2024/01/27 01:57:46;;;;;;;10.00;4.20;;;4.60;56.90;;;;;;5062275;28;20215;-63
2024/01/27 02:00:13;;;;;;;6.10;3.90;;;4.70;57.00;;;;;;5060506;28;20281;-64
2024/01/27 02:02:39;;;;;;;10.37;3.97;;;4.60;56.50;;;;;;5052068;28;20638;-64
2024/01/27 02:05:08;;;;;;;5.77;3.37;;;4.60;56.50;;;;;;5063794;28;20236;-63
2024/01/27 02:07:35;;;;;;;5.43;3.00;;;4.50;56.50;;;;;;5051323;28;20209;-61
2024/01/27 02:10:01;;;;;;;6.80;3.60;;;4.40;57.30;;;;;;5053201;28;20223;-63
2024/01/27 02:12:28;;;;;;;5.80;2.97;;;4.40;56.90;;;;;;5063654;28;20281;-64
2024/01/27 02:14:54;;;;;;;4.60;3.00;;;4.60;56.00;;;;;;5060640;28;20282;-63
2024/01/27 02:17:21;;;;;;;5.93;2.90;;;4.60;55.90;;;;;;5060348;28;20205;-63
2024/01/27 02:19:47;;;;;;;4.33;2.53;;;4.50;56.50;;;;;;5066263;28;20245;-63
2024/01/27 02:22:14;;;;;;;3.60;2.80;;;4.50;56.40;;;;;;5063358;28;20244;-64
2024/01/27 02:24:40;;;;;;;3.57;2.40;;;4.50;55.50;;;;;;5057375;28;20215;-64
2024/01/27 02:27:07;;;;;;;4.47;2.53;;;4.50;55.80;;;;;;5050873;28;20212;-64
2024/01/27 02:29:33;;;;;;;4.27;2.50;;;4.40;56.10;;;;;;5059004;28;20205;-64
2024/01/27 02:32:00;;;;;;;3.57;2.60;;;4.30;56.20;;;;;;5063604;28;20285;-63
2024/01/27 02:34:26;;;;;;;3.80;2.10;;;4.40;56.00;;;;;;5063555;28;20207;-63
2024/01/27 02:36:53;;;;;;;6.73;2.57;;;4.40;56.10;;;;;;5050933;28;20240;-63
2024/01/27 02:39:19;;;;;;;2.63;2.43;;;4.30;55.80;;;;;;5060302;28;20265;-63
2024/01/27 02:41:46;;;;;;;5.60;2.37;;;4.40;56.00;;;;;;5062314;28;20223;-63
2024/01/27 02:44:12;;;;;;;4.57;2.33;;;4.30;56.20;;;;;;5063304;28;20281;-63
2024/01/27 02:46:39;;;;;;;6.03;2.43;;;4.30;55.70;;;;;;5062533;28;20211;-63
2024/01/27 02:49:05;;;;;;;3.43;2.30;;;4.50;55.20;;;;;;5059519;28;20243;-63
2024/01/27 02:51:32;;;;;;;4.30;2.60;;;4.40;55.10;;;;;;5062041;28;20286;-63
2024/01/27 02:53:58;;;;;;;2.80;2.23;;;4.40;54.90;;;;;;5050079;28;20210;-63
2024/01/27 02:56:25;;;;;;;4.87;2.57;;;4.60;55.00;;;;;;5052235;28;20244;-63
2024/01/27 02:58:51;;;;;;;4.03;2.53;;;4.50;54.50;;;;;;5062235;28;20252;-63
2024/01/27 03:01:18;;;;;;;3.27;2.20;;;4.40;55.00;;;;;;5064911;28;20246;-63
2024/01/27 03:03:44;;;;;;;3.20;2.30;;;4.40;55.50;;;;;;5049626;28;20209;-63
2024/01/27 03:06:11;;;;;;;4.73;2.57;;;4.40;55.30;;;;;;5061081;28;20239;-63
2024/01/27 03:08:37;;;;;;;3.70;2.50;;;4.50;55.40;;;;;;5063096;28;20688;-62
2024/01/27 03:11:04;;;;;;;4.87;2.53;;;4.40;55.50;;;;;;5062315;28;20257;-63
2024/01/27 03:13:30;;;;;;;3.10;2.80;;;4.50;55.60;;;;;;5060595;28;20220;-63
2024/01/27 03:15:57;;;;;;;3.93;3.00;;;4.40;55.80;;;;;;5056115;28;20629;-62
2024/01/27 03:18:24;;;;;;;3.80;2.40;;;4.40;55.90;;;;;;5062181;28;20202;-63
2024/01/27 03:20:51;;;;;;;5.13;2.40;;;4.50;55.70;;;;;;5057476;28;20314;-62
2024/01/27 03:23:18;;;;;;;5.07;2.67;;;4.60;55.70;;;;;;5057884;28;20250;-63
2024/01/27 03:25:44;;;;;;;4.00;2.37;;;4.60;55.70;;;;;;5061159;28;20205;-63
2024/01/27 03:28:11;;;;;;;4.20;2.23;;;4.60;55.50;;;;;;5062436;28;20235;-63
2024/01/27 03:30:38;;;;;;;5.37;2.23;;;4.50;55.60;;;;;;5061152;28;20202;-62
2024/01/27 03:33:06;;;;;;;3.77;2.50;;;4.50;55.50;;;;;;5059258;28;20724;-61
2024/01/27 03:35:32;;;;;;;5.07;2.60;;;4.50;55.70;;;;;;5059369;28;20292;-63
2024/01/27 03:37:59;;;;;;;4.47;2.17;;;4.50;55.50;;;;;;5056758;28;20201;-63
2024/01/27 03:40:25;;;;;;;2.30;2.10;;;4.60;55.30;;;;;;5047402;28;20227;-63
2024/01/27 03:42:52;;;;;;;5.20;3.00;;;4.60;55.20;;;;;;5060714;28;20286;-63
2024/01/27 03:45:18;;;;;;;4.37;2.50;;;4.50;55.60;;;;;;5061051;28;20235;-63
2024/01/27 03:47:45;;;;;;;4.57;2.77;;;4.60;55.60;;;;;;5059668;28;20216;-63
2024/01/27 03:50:11;;;;;;;3.30;2.10;;;4.40;55.30;;;;;;5063066;28;20234;-63
2024/01/27 03:52:38;;;;;;;3.43;2.13;;;4.50;55.30;;;;;;5061986;28;20231;-63
2024/01/27 03:55:05;;;;;;;2.77;2.40;;;4.40;55.60;;;;;;5059297;28;20239;-63
2024/01/27 03:57:31;;;;;;;3.67;2.37;;;4.40;55.60;;;;;;5046702;28;20234;-63
2024/01/27 03:59:58;;;;;;;4.37;2.13;;;4.30;55.90;;;;;;5064734;28;20217;-63
2024/01/27 04:02:24;;;;;;;3.73;2.60;;;4.30;55.90;;;;;;5062358;28;20231;-63
2024/01/27 04:04:51;;;;;;;2.93;2.13;;;4.30;56.20;;;;;;5056294;28;20238;-63
2024/01/27 04:07:17;;;;;;;4.13;2.20;;;4.20;56.20;;;;;;5062848;28;20712;-62
2024/01/27 04:09:44;;;;;;;3.33;2.97;;;4.10;56.80;;;;;;5061039;28;20230;-63
2024/01/27 04:12:10;;;;;;;3.97;2.43;;;4.10;56.60;;;;;;5066279;28;20245;-63
2024/01/27 04:14:37;;;;;;;3.83;2.37;;;4.10;56.50;;;;;;5062973;28;20213;-63
2024/01/27 04:17:03;;;;;;;4.40;2.17;;;4.10;56.80;;;;;;5062914;28;20243;-63
2024/01/27 04:19:30;;;;;;;4.97;2.70;;;4.00;56.90;;;;;;5062064;28;20274;-62
2024/01/27 04:21:56;;;;;;;4.47;2.23;;;4.10;56.90;;;;;;5058943;28;20324;-63
2024/01/27 04:24:23;;;;;;;2.87;2.30;;;4.00;56.80;;;;;;5055320;28;20608;-63
2024/01/27 04:26:49;;;;;;;4.20;2.30;;;4.00;57.20;;;;;;5062260;28;20229;-63
2024/01/27 04:29:16;;;;;;;4.43;2.43;;;4.00;57.30;;;;;;5065895;28;20239;-63
2024/01/27 04:31:42;;;;;;;3.03;2.20;;;3.80;57.30;;;;;;5059793;28;20254;-63
2024/01/27 04:34:09;;;;;;;3.73;2.20;;;3.80;57.90;;;;;;5065599;28;20214;-63
2024/01/27 04:36:36;;;;;;;4.73;2.47;;;3.70;57.80;;;;;;5062605;28;20201;-63
2024/01/27 04:39:04;;;;;;;3.27;2.07;;;3.70;57.90;;;;;;5059714;28;20217;-63
2024/01/27 04:41:33;;;;;;;2.80;2.20;;;3.80;57.50;;;;;;5056360;28;20878;-63
2024/01/27 04:43:59;;;;;;;3.90;2.47;;;3.70;58.00;;;;;;5053742;28;20645;-63
2024/01/27 04:46:25;;;;;;;3.87;2.47;;;3.60;58.10;;;;;;5065789;28;20207;-63
2024/01/27 04:48:52;;;;;;;6.43;2.57;;;3.80;57.70;;;;;;5063047;28;20295;-63
2024/01/27 04:51:19;;;;;;;3.37;2.47;;;3.90;57.30;;;;;;5061660;28;20302;-63
2024/01/27 04:53:45;;;;;;;3.73;2.30;;;3.80;57.80;;;;;;5062075;28;20220;-62
2024/01/27 04:56:12;;;;;;;3.53;2.97;;;3.70;57.90;;;;;;5064942;28;20208;-63
2024/01/27 04:58:39;;;;;;;4.40;2.60;;;3.60;57.90;;;;;;5064485;28;20211;-63
2024/01/27 05:01:06;;;;;;;5.37;2.60;;;3.50;58.60;;;;;;5054639;28;20813;-63
2024/01/27 05:03:33;;;;;;;3.80;2.53;;;3.70;58.70;;;;;;5057821;28;20682;-63
2024/01/27 05:05:59;;;;;;;3.23;2.23;;;3.70;58.40;;;;;;5043354;28;20207;-62
2024/01/27 05:08:26;;;;;;;4.50;2.63;;;3.70;58.20;;;;;;5057544;28;20212;-64
2024/01/27 05:10:52;;;;;;;4.50;2.40;;;3.70;58.00;;;;;;5062116;28;20244;-62
2024/01/27 05:13:19;;;;;;;4.63;2.47;;;3.60;58.10;;;;;;5061414;28;20668;-64
2024/01/27 05:15:45;;;;;;;5.03;2.83;;;3.70;58.00;;;;;;5061378;28;20253;-64
2024/01/27 05:18:12;;;;;;;2.43;2.23;;;3.70;58.20;;;;;;5054778;28;20677;-64
2024/01/27 05:20:38;;;;;;;7.97;2.33;;;3.70;57.90;;;;;;5061407;28;20235;-64
2024/01/27 05:23:05;;;;;;;4.33;2.57;;;3.70;58.00;;;;;;5056388;28;20310;-63
2024/01/27 05:25:31;;;;;;;4.27;2.37;;;3.70;58.00;;;;;;5063198;28;20225;-63
2024/01/27 05:27:58;;;;;;;4.43;2.90;;;3.70;58.30;;;;;;5051067;28;20689;-64
2024/01/27 05:30:24;;;;;;;3.70;2.50;;;3.50;58.50;;;;;;5056979;28;20251;-63
2024/01/27 05:32:51;;;;;;;4.60;2.77;;;3.60;58.60;;;;;;5043109;28;20702;-62
2024/01/27 05:35:17;;;;;;;2.90;2.37;;;3.60;58.30;;;;;;5060965;28;20274;-63
2024/01/27 05:37:44;;;;;;;4.37;2.80;;;3.60;58.50;;;;;;5062228;28;20202;-64
2024/01/27 05:40:10;;;;;;;6.30;2.63;;;3.50;58.40;;;;;;5059103;28;20303;-64
2024/01/27 05:42:37;;;;;;;4.80;2.70;;;3.40;58.70;;;;;;5054403;28;20225;-64
2024/01/27 05:45:04;;;;;;;6.40;2.80;;;3.40;59.10;;;;;;5055287;28;20242;-63
2024/01/27 05:47:30;;;;;;;3.37;2.40;;;3.50;59.00;;;;;;5062896;28;20205;-64
2024/01/27 05:49:57;;;;;;;4.27;2.83;;;3.60;58.80;;;;;;5064524;28;20255;-64
2024/01/27 05:52:25;;;;;;;4.93;2.83;;;3.60;58.70;;;;;;5060343;28;20254;-64
2024/01/27 05:54:51;;;;;;;6.33;2.80;;;3.60;58.70;;;;;;5062764;28;20212;-64
2024/01/27 05:57:18;;;;;;;6.17;3.00;;;3.60;58.80;;;;;;5063996;28;20277;-64
2024/01/27 05:59:44;;;;;;;4.37;3.30;;;3.70;58.00;;;;;;5062773;28;20292;-64
2024/01/27 06:02:11;;;;;;;2.93;2.63;;;3.70;58.60;;;;;;5051447;28;20264;-63
2024/01/27 06:04:38;;;;;;;5.07;2.93;;;3.70;58.50;;;;;;5062008;28;20218;-63
2024/01/27 06:07:04;;;;;;;3.20;2.90;;;3.60;58.60;;;;;;5049601;28;20229;-64
2024/01/27 06:09:31;;;;;;;7.47;3.20;;;3.50;58.80;;;;;;5061584;28;20229;-64
2024/01/27 06:11:57;;;;;;;3.97;2.53;;;3.50;58.80;;;;;;5064583;28;20232;-63
2024/01/27 06:14:24;;;;;;;6.50;3.00;;;3.50;59.20;;;;;;5065231;28;20617;-63
2024/01/27 06:16:51;;;;;;;4.43;2.60;;;3.60;59.20;;;;;;5062127;28;20214;-64
2024/01/27 06:19:17;;;;;;;5.00;2.80;;;3.50;58.70;;;;;;5064216;28;20213;-63
2024/01/27 06:21:44;;;;;;;4.80;2.97;;;3.60;58.80;;;;;;5062965;28;20224;-64
2024/01/27 06:24:10;;;;;;;5.57;3.03;;;3.50;59.00;;;;;;5053343;28;20685;-64
2024/01/27 06:26:37;;;;;;;5.00;3.07;;;3.50;59.00;;;;;;5057959;28;20257;-63
2024/01/27 06:29:04;;;;;;;4.83;3.10;;;3.40;59.40;;;;;;5059704;28;20206;-63
2024/01/27 06:31:30;;;;;;;4.60;3.07;;;3.40;59.80;;;;;;5060011;28;20229;-64
2024/01/27 06:33:57;;;;;;;3.87;2.73;;;3.40;59.60;;;;;;5063068;28;20211;-64
2024/01/27 06:36:24;;;;;;;7.17;3.50;;;3.40;59.50;;;;;;5062066;28;20595;-64
2024/01/27 06:38:51;;;;;;;4.20;2.80;;;3.40;59.60;;;;;;5061114;28;20217;-64
2024/01/27 06:41:17;;;;;;;7.10;3.27;;;3.30;59.60;;;;;;5060090;28;20674;-63
2024/01/27 06:43:44;;;;;;;5.93;2.57;;;3.50;59.20;;;;;;5055040;28;20697;-64
2024/01/27 06:46:10;;;;;;;3.80;2.70;;;3.40;59.30;;;;;;5055669;28;20592;-64
2024/01/27 06:48:37;;;;;;;4.97;2.90;;;3.40;59.70;;;;;;5060354;28;20219;-64
2024/01/27 06:51:03;;;;;;;3.77;3.43;;;3.30;59.70;;;;;;5063108;28;20699;-64
2024/01/27 06:53:30;;;;;;;4.37;2.90;;;3.40;59.70;;;;;;5062221;28;20212;-63
2024/01/27 06:55:56;;;;;;;6.23;2.70;;;3.50;59.30;;;;;;5060370;28;20297;-63
2024/01/27 06:58:23;;;;;;;4.77;3.20;;;3.60;58.90;;;;;;5060789;28;20230;-63
2024/01/27 07:00:49;;;;;;;5.73;3.27;;;3.60;58.70;;;;;;5055664;28;20295;-63
2024/01/27 07:03:16;;;;;;;6.93;3.20;;;3.60;58.60;;;;;;5047904;28;20249;-63
2024/01/27 07:05:42;;;;;;;6.40;3.30;;;3.50;58.80;;;;;;5056394;28;20222;-63
2024/01/27 07:08:09;;;;;;;7.10;2.87;;;3.50;59.10;;;;;;5052483;28;20255;-63
2024/01/27 07:10:35;;;;;;;3.53;2.77;;;3.40;59.20;;;;;;5046700;28;20654;-62
2024/01/27 07:13:02;;;;;;;3.83;3.23;;;3.40;59.20;;;;;;5050395;28;20273;-62
2024/01/27 07:15:28;;;;;;;5.23;3.30;;;3.50;59.40;;;;;;5057474;28;20620;-62
2024/01/27 07:17:55;;;;;;;4.17;3.07;;;3.40;59.40;;;;;;5052314;28;22425;-66
2024/01/27 07:20:23;;;;;;;9.83;3.87;;;3.40;59.40;;;;;;5049016;28;20281;-62
2024/01/27 07:22:49;;;;;;;5.07;2.73;;;3.40;59.60;;;;;;5055752;28;20322;-63
2024/01/27 07:25:16;;;;;;;5.17;3.33;;;3.50;59.70;;;;;;5059332;28;20210;-63
2024/01/27 07:27:43;;;;;;;4.13;3.07;;;3.50;58.90;;;;;;5062116;28;20207;-63
2024/01/27 07:30:11;;;;;;;6.83;3.70;;;3.50;59.40;;;;;;5052186;28;20707;-62
2024/01/27 07:32:37;;;;;;;6.80;3.20;;;3.40;59.80;;;;;;5060220;28;20281;-63
2024/01/27 07:35:05;;;;;;;4.73;3.10;;;3.60;59.90;;;;;;5053135;28;20223;-62
2024/01/27 07:37:32;;;;;;;5.20;3.43;;;3.70;59.00;;;;;;5051247;28;20217;-64
2024/01/27 07:39:58;;;;;;;5.57;3.70;;;3.70;59.30;;;;;;5043595;28;20289;-62
2024/01/27 07:42:25;;;;;;;8.33;4.03;;;3.60;59.20;;;;;;5049547;28;20719;-62
2024/01/27 07:44:51;;;;;;;5.97;3.33;;;3.60;59.40;;;;;;5048592;28;20216;-61
2024/01/27 07:47:18;;;;;;;7.27;3.17;;;3.60;59.70;;;;;;5057015;28;20217;-61
2024/01/27 07:49:44;;;;;;;5.20;3.17;;;3.60;59.80;;;;;;5060799;28;20682;-63
2024/01/27 07:52:11;;;;;;;5.23;3.30;;;3.70;59.80;;;;;;5062011;28;20238;-62
2024/01/27 07:54:39;;;;;;;5.90;3.40;;;3.80;59.40;;;;;;5052604;28;20207;-62
2024/01/27 07:57:06;;;;;;;5.27;3.47;;;3.80;58.90;;;;;;5046559;28;20227;-63
2024/01/27 07:59:33;;;;;;;7.70;3.70;;;3.90;58.60;;;;;;5046797;28;20214;-63
2024/01/27 08:01:59;;;;;;;5.63;3.37;;;3.90;58.80;;;;;;5047477;28;20815;-63
2024/01/27 08:04:26;;;;;;;6.00;4.13;;;3.90;58.70;;;;;;5048993;28;20233;-62
2024/01/27 08:06:52;;;;;;;5.63;3.80;;;3.80;58.80;;;;;;5056793;28;20219;-62
2024/01/27 08:09:19;;;;;;;4.97;4.00;;;3.90;58.80;;;;;;5055254;28;20254;-62
2024/01/27 08:11:46;;;;;;;6.80;4.63;;;3.90;59.10;;;;;;5055330;28;20663;-63
2024/01/27 08:14:12;;;;;;;6.67;3.90;;;4.00;58.80;;;;;;5055327;28;20206;-63
2024/01/27 08:16:38;;;;;;;5.27;4.07;;;4.00;58.60;;;;;;5057482;28;20237;-63
2024/01/27 08:19:05;;;;;;;5.60;3.60;;;4.10;58.30;;;;;;5049435;28;20625;-63
2024/01/27 08:21:32;;;;;;;6.93;3.63;;;4.00;58.30;;;;;;5031666;28;20277;-62
2024/01/27 08:23:58;;;;;;;7.10;4.03;;;4.10;58.90;;;;;;5050715;28;20601;-63
2024/01/27 08:26:25;;;;;;;6.40;4.10;;;4.10;58.00;;;;;;5048774;28;20306;-63
2024/01/27 08:28:51;;;;;;;6.97;4.40;;;4.20;58.50;;;;;;5054118;28;20210;-62
2024/01/27 08:31:18;;;;;;;7.23;3.87;;;4.20;58.40;;;;;;5054558;28;20663;-63
2024/01/27 08:33:44;;;;;;;9.63;4.10;;;4.20;58.40;;;;;;5057713;28;20244;-62
2024/01/27 08:36:11;;;;;;;8.50;4.40;;;4.30;58.20;;;;;;5054216;28;20218;-62
2024/01/27 08:38:37;;;;;;;6.83;3.80;;;4.50;57.60;;;;;;5060972;28;20234;-63
2024/01/27 08:41:04;;;;;;;4.50;4.10;;;4.60;56.50;;;;;;5073693;28;20258;-63
2024/01/27 08:43:30;;;;;;;8.73;4.43;;;4.70;56.70;;;;;;5063839;28;20204;-63
2024/01/27 08:45:57;;;;;;;8.80;4.40;;;4.70;56.40;;;;;;5066647;28;20218;-65
2024/01/27 08:48:24;;;;;;;7.30;4.20;;;4.90;56.60;;;;;;5070774;28;20699;-65
2024/01/27 08:50:50;;;;;;;8.43;4.50;;;5.10;55.40;;;;;;5068627;28;20262;-64
2024/01/27 08:53:17;;;;;;;4.93;3.53;;;5.20;55.20;;;;;;5064820;28;20407;-72
2024/01/27 08:55:43;;;;;;;9.17;5.70;;;5.50;55.10;;;;;;5061255;28;20707;-64
2024/01/27 08:58:10;;;;;;;7.77;3.90;;;5.80;55.20;;;;;;5069052;28;20208;-63
2024/01/27 09:00:36;;;;;;;6.57;3.93;;;6.50;53.20;;;;;;5072906;28;20702;-64
2024/01/27 09:03:03;;;;;;;8.80;4.53;;;6.70;51.70;;;;;;5069547;28;20264;-64
2024/01/27 09:05:29;;;;;;;8.40;4.00;;;7.00;52.60;;;;;;5069430;28;20202;-64
2024/01/27 09:07:56;;;;;;;9.90;4.40;;;7.10;49.70;;;;;;5073767;28;20209;-64
2024/01/27 09:10:23;;;;;;;7.87;4.00;;;7.10;49.70;;;;;;5071127;28;20260;-64
2024/01/27 09:12:49;;;;;;;6.70;4.23;;;7.20;50.20;;;;;;5070091;28;20229;-64
2024/01/27 09:15:16;;;;;;;5.97;5.37;;;7.30;49.20;;;;;;5067478;28;20620;-64
2024/01/27 09:17:43;;;;;;;8.87;3.80;;;7.50;48.90;;;;;;5072847;28;20245;-64
2024/01/27 09:20:09;;;;;;;5.90;4.10;;;7.60;49.00;;;;;;5066285;28;20215;-64
2024/01/27 09:22:36;;;;;;;5.90;4.00;;;7.80;48.20;;;;;;5072288;28;20257;-64
2024/01/27 09:25:03;;;;;;;6.30;3.70;;;7.90;48.20;;;;;;5065301;28;20214;-64
2024/01/27 09:27:29;;;;;;;7.90;3.73;;;7.90;46.90;;;;;;5071306;28;20206;-64
2024/01/27 09:29:56;;;;;;;5.80;3.87;;;7.70;47.00;;;;;;5072780;28;20260;-64
2024/01/27 09:32:22;;;;;;;4.00;3.30;;;7.90;48.20;;;;;;5072974;28;20264;-64
2024/01/27 09:34:49;;;;;;;8.43;3.90;;;8.10;46.70;;;;;;5067349;28;20661;-64
2024/01/27 09:37:15;;;;;;;8.07;4.47;;;8.00;46.40;;;;;;5070827;28;20383;-64
2024/01/27 09:39:42;;;;;;;8.23;4.30;;;8.10;46.10;;;;;;5071156;28;20235;-64
2024/01/27 09:42:10;;;;;;;8.70;3.83;;;8.40;46.40;;;;;;5069626;28;20702;-64
2024/01/27 09:44:36;;;;;;;8.30;4.57;;;8.30;45.10;;;;;;5071364;28;20255;-64
2024/01/27 09:47:03;;;;;;;9.03;3.97;;;8.40;45.60;;;;;;5073193;28;20215;-64
2024/01/27 09:49:29;;;;;;;6.53;3.23;;;8.50;45.10;;;;;;5065501;28;20254;-63
2024/01/27 09:51:56;;;;;;;5.93;3.17;;;8.30;44.80;;;;;;5062235;28;20258;-63
2024/01/27 09:54:23;;;;;;;7.13;3.80;;;8.70;44.40;;;;;;5067567;28;20212;-64
2024/01/27 09:56:49;;;;;;;6.97;3.40;;;8.90;43.90;;;;;;5071004;28;20224;-64
2024/01/27 09:59:18;;;;;;;7.20;3.30;;;8.90;43.60;;;;;;5072422;28;20205;-64
2024/01/27 10:01:44;;;;;;;9.37;3.90;;;9.10;42.30;;;;;;5070133;28;20240;-64
2024/01/27 10:04:11;;;;;;;5.67;3.23;;;9.10;42.40;;;;;;5071955;28;20210;-64
2024/01/27 10:06:37;;;;;;;9.23;3.50;;;9.10;42.30;;;;;;5071918;28;20639;-63
2024/01/27 10:09:04;;;;;;;4.73;3.17;;;9.20;41.60;;;;;;5064423;28;20231;-63
2024/01/27 10:11:30;;;;;;;9.20;3.30;;;9.40;40.70;;;;;;5070050;28;20228;-64
2024/01/27 10:13:57;;;;;;;6.10;3.87;;;9.60;41.30;;;;;;5072349;28;20254;-64
2024/01/27 10:16:24;;;;;;;6.63;3.37;;;9.50;40.40;;;;;;5072327;28;20649;-64
2024/01/27 10:18:50;;;;;;;4.97;3.63;;;9.50;41.10;;;;;;5071873;28;20664;-64
2024/01/27 10:21:17;;;;;;;4.50;3.43;;;9.50;40.50;;;;;;5071695;28;20268;-64
2024/01/27 10:23:44;;;;;;;7.50;3.40;;;9.80;40.70;;;;;;5070699;28;20206;-63
2024/01/27 10:26:10;;;;;;;7.17;3.63;;;10.00;38.90;;;;;;5076627;28;20234;-64
2024/01/27 10:28:37;;;;;;;5.73;3.30;;;9.80;39.90;;;;;;5066659;28;20726;-64
2024/01/27 10:31:03;;;;;;;7.77;3.70;;;9.70;39.70;;;;;;5065083;28;20295;-64
2024/01/27 10:33:31;;;;;;;7.60;4.30;;;10.00;39.10;;;;;;5076111;28;20214;-64
2024/01/27 10:35:58;;;;;;;7.20;3.60;;;10.30;37.80;;;;;;5074582;28;20705;-64
2024/01/27 10:38:24;;;;;;;6.30;3.97;;;10.20;38.00;;;;;;5071311;28;20301;-64
2024/01/27 10:40:51;;;;;;;9.77;4.43;;;10.50;38.10;;;;;;5070180;28;20709;-65
2024/01/27 10:43:18;;;;;;;4.73;3.00;;;10.40;38.50;;;;;;5071077;28;20212;-62
2024/01/27 10:45:44;;;;;;;7.63;3.50;;;10.80;37.60;;;;;;5065506;28;20731;-62
2024/01/27 10:48:11;;;;;;;11.67;6.80;;;10.90;36.90;;;;;;5062042;28;20204;-63
2024/01/27 10:50:38;;;;;;;8.90;6.97;;;10.30;38.40;;;;;;5068086;28;20604;-63
2024/01/27 10:53:04;;;;;;;6.23;3.90;;;10.70;37.50;;;;;;5070605;28;20316;-63
2024/01/27 10:55:31;;;;;;;5.63;3.70;;;11.00;36.50;;;;;;5067518;28;20197;-63
2024/01/27 10:57:57;;;;;;;6.33;3.80;;;10.80;37.00;;;;;;5071235;28;20193;-63
2024/01/27 11:00:24;;;;;;;6.77;3.70;;;10.90;36.10;;;;;;5067685;28;20823;-63
2024/01/27 11:02:53;;;;;;;6.67;3.30;;;11.00;36.10;;;;;;5063477;28;20707;-64
2024/01/27 11:05:19;;;;;;;7.47;3.50;;;11.00;35.10;;;;;;5068951;28;20790;-63
2024/01/27 11:07:46;;;;;;;5.43;3.57;;;11.10;35.30;;;;;;5061954;28;20272;-63
2024/01/27 11:10:12;;;;;;;7.77;3.37;;;11.10;35.30;;;;;;5068861;28;20267;-63
2024/01/27 11:12:39;;;;;;;7.30;4.20;;;11.10;35.20;;;;;;5070588;28;20248;-63
2024/01/27 11:15:05;;;;;;;6.53;4.10;;;11.20;35.20;;;;;;5074468;28;20205;-63
2024/01/27 11:17:32;;;;;;;7.07;3.27;;;11.00;35.20;;;;;;5074800;28;20246;-62
2024/01/27 11:19:59;;;;;;;6.90;3.20;;;11.00;35.60;;;;;;5069663;28;20215;-62
2024/01/27 11:22:26;;;;;;;6.10;3.50;;;11.30;34.30;;;;;;5070177;28;20225;-63
2024/01/27 11:24:53;;;;;;;6.17;3.53;;;11.40;34.00;;;;;;5073157;28;20739;-63
2024/01/27 11:27:20;;;;;;;5.13;3.30;;;11.50;33.90;;;;;;5068068;28;20210;-63
2024/01/27 11:29:46;;;;;;;5.60;3.03;;;11.60;34.30;;;;;;5069554;28;20248;-63
2024/01/27 11:32:13;;;;;;;4.90;2.70;;;11.40;33.90;;;;;;5067976;28;20633;-63
2024/01/27 11:34:39;;;;;;;5.53;3.27;;;11.80;32.80;;;;;;5070365;28;20243;-63
2024/01/27 11:37:06;;;;;;;4.83;3.37;;;11.50;33.10;;;;;;5066361;28;20235;-63
2024/01/27 11:39:32;;;;;;;5.30;3.33;;;11.40;34.70;;;;;;5068837;28;20258;-63
2024/01/27 11:41:59;;;;;;;4.17;2.87;;;11.80;32.60;;;;;;5071016;28;20662;-63
2024/01/27 11:44:25;;;;;;;5.63;3.37;;;11.60;31.90;;;;;;5073566;28;20251;-64
2024/01/27 11:46:53;;;;;;;4.87;2.70;;;11.70;32.00;;;;;;5060307;28;20231;-65
2024/01/27 11:49:20;;;;;;;6.33;2.90;;;11.90;31.30;;;;;;5069050;28;20237;-65
2024/01/27 11:51:47;;;;;;;4.70;2.50;;;11.90;31.80;;;;;;5073487;28;20279;-64
2024/01/27 11:54:14;;;;;;;6.63;3.10;;;11.80;30.30;;;;;;5067631;28;20214;-64
2024/01/27 11:56:40;;;;;;;6.13;2.93;;;12.30;30.90;;;;;;5061235;28;20202;-66
2024/01/27 11:59:07;;;;;;;4.83;2.73;;;13.10;29.10;;;;;;5063739;28;20217;-63
2024/01/27 12:01:33;;;;;;;6.37;2.90;;;14.10;27.30;;;;;;5062098;28;20674;-63
2024/01/27 12:04:00;;;;;;;5.32;2.90;;;14.50;27.40;;;;;;5065922;28;20256;-62
2024/01/27 12:06:26;;;;;;;4.27;3.87;;;15.90;26.70;;;;;;5070302;28;20240;-63
2024/01/27 12:08:53;;;;;;;6.20;3.08;;;17.10;24.80;;;;;;5064565;28;20682;-64
2024/01/27 12:11:19;;;;;;;4.15;2.97;;;16.80;25.20;;;;;;5052110;28;20217;-63
2024/01/27 12:13:46;;;;;;;6.13;3.23;;;16.20;26.20;;;;;;5061162;28;20263;-64
2024/01/27 12:16:12;;;;;;;5.07;2.97;;;15.00;27.00;;;;;;5061912;28;20298;-71
2024/01/27 12:18:39;;;;;;;7.87;3.93;;;13.70;28.30;;;;;;5068072;28;20575;-64
2024/01/27 12:21:05;;;;;;;5.57;2.77;;;13.70;29.00;;;;;;5073811;28;20267;-64
2024/01/27 12:23:32;;;;;;;4.80;2.90;;;13.40;29.10;;;;;;5073861;28;20277;-63
2024/01/27 12:25:58;;;;;;;7.97;4.03;;;13.90;28.90;;;;;;5068874;28;20682;-64
2024/01/27 12:28:25;;;;;;;9.00;3.83;;;13.50;29.20;;;;;;5060198;28;20692;-64
2024/01/27 12:30:52;;;;;;;5.10;3.03;;;13.30;29.00;;;;;;5072544;28;20233;-64
2024/01/27 12:33:22;;;;;;;5.00;2.50;;;12.90;29.00;;;;;;5066138;28;20208;-64
2024/01/27 12:35:49;;;;;;;6.57;3.10;;;12.40;28.60;;;;;;5073295;28;20580;-64
2024/01/27 12:38:15;;;;;;;5.77;2.77;;;12.30;29.00;;;;;;5072616;28;20233;-64
2024/01/27 12:40:42;;;;;;;7.73;3.00;;;12.30;29.70;;;;;;5073153;28;20215;-64
2024/01/27 12:43:09;;;;;;;4.13;2.40;;;12.00;29.00;;;;;;5071222;28;20687;-63
2024/01/27 12:45:36;;;;;;;6.90;3.47;;;11.70;29.20;;;;;;5064157;28;20699;-63
2024/01/27 12:48:05;;;;;;;4.73;2.67;;;11.80;30.00;;;;;;5059547;28;20280;-63
2024/01/27 12:50:32;;;;;;;5.67;2.63;;;11.80;29.30;;;;;;5068280;28;20696;-64